Time;durP1;ratioP1;P1;durP2;ratioP2;P2;SDS_P1;SDS_P2;PMS_P1;PMS_P2;Temp;Humidity;BMP_temperature;BMP_pressure;BME280_temperature;BME280_humidity;BME280_pressure;Samples;Min_cycle;Max_cycle;Signal;HPM_P1;HPM_P2
2021/03/27 00:00:21;;;;;;;211.37;75.77;;;4.00;99.90;;;;;;4986463;28;20198;-93
2021/03/27 00:02:54;;;;;;;203.77;76.43;;;4.10;99.90;;;;;;4995103;28;20260;-93
2021/03/27 00:05:44;;;;;;;224.77;84.03;;;2.70;99.90;;;;;;5016920;28;20202;-93
2021/03/27 00:08:35;;;;;;;209.33;82.23;;;3.40;99.90;;;;;;5014392;28;20186;-93
2021/03/27 00:11:20;;;;;;;229.37;88.17;;;2.70;99.90;;;;;;5017527;28;20170;-92
2021/03/27 00:14:02;;;;;;;226.33;86.17;;;3.50;99.90;;;;;;4994654;28;20196;-93
2021/03/27 00:16:28;;;;;;;197.30;76.07;;;0.60;99.90;;;;;;4995420;28;20169;-93
2021/03/27 00:18:54;;;;;;;196.27;73.50;;;2.50;99.90;;;;;;4995626;28;20983;-93
2021/03/27 00:21:43;;;;;;;181.37;69.47;;;3.80;99.90;;;;;;4994311;28;20532;-92
2021/03/27 00:24:21;;;;;;;181.50;69.20;;;4.00;99.90;;;;;;4996197;28;20511;-93
2021/03/27 00:27:13;;;;;;;178.60;66.93;;;2.60;99.90;;;;;;4994463;28;20587;-92
2021/03/27 00:29:56;;;;;;;162.30;63.87;;;2.60;99.90;;;;;;4984811;28;20183;-93
2021/03/27 00:32:45;;;;;;;169.30;63.37;;;2.70;99.90;;;;;;4994306;28;20282;-93
2021/03/27 00:35:16;;;;;;;172.07;62.57;;;2.50;99.90;;;;;;4992857;28;20190;-93
2021/03/27 00:37:44;;;;;;;166.27;62.37;;;2.50;99.90;;;;;;4992905;28;20206;-94
2021/03/27 00:40:18;;;;;;;164.00;62.93;;;3.00;99.90;;;;;;4994258;28;20186;-93
2021/03/27 00:43:01;;;;;;;222.37;78.47;;;2.50;99.90;;;;;;4994515;28;20180;-93
2021/03/27 00:45:39;;;;;;;153.47;60.83;;;3.20;99.90;;;;;;4993194;28;20188;-94
2021/03/27 00:48:10;;;;;;;164.13;60.97;;;2.60;99.90;;;;;;4973716;28;20203;-93
2021/03/27 00:50:56;;;;;;;149.37;59.50;;;2.40;99.90;;;;;;4973680;28;20631;-93
2021/03/27 00:53:36;;;;;;;151.33;61.63;;;2.40;99.90;;;;;;4973663;28;20632;-95
2021/03/27 00:56:11;;;;;;;164.33;63.10;;;3.70;99.90;;;;;;4973581;28;20189;-93
2021/03/27 00:58:45;;;;;;;164.77;63.23;;;2.90;99.90;;;;;;4976217;28;20214;-95
2021/03/27 01:01:13;;;;;;;188.70;68.53;;;2.30;99.90;;;;;;4975514;28;20194;-95
2021/03/27 01:03:48;;;;;;;184.27;68.87;;;3.00;99.90;;;;;;4975891;28;20179;-93
2021/03/27 01:06:17;;;;;;;166.27;62.50;;;2.50;99.90;;;;;;4973902;28;20685;-94
2021/03/27 01:08:47;;;;;;;181.30;66.17;;;3.80;99.90;;;;;;4974673;28;20632;-94
2021/03/27 01:11:44;;;;;;;170.20;65.37;;;2.40;99.90;;;;;;4976955;28;20188;-95
2021/03/27 01:14:15;;;;;;;166.83;65.93;;;2.40;99.90;;;;;;4977575;28;20183;-93
2021/03/27 01:16:50;;;;;;;186.13;68.47;;;2.50;99.90;;;;;;4979705;28;20185;-94
2021/03/27 01:19:32;;;;;;;181.87;67.77;;;2.20;99.90;;;;;;4977626;28;20267;-94
2021/03/27 01:22:04;;;;;;;171.97;63.90;;;2.20;99.90;;;;;;4977150;28;20204;-92
2021/03/27 01:24:35;;;;;;;179.13;66.13;;;2.20;99.90;;;;;;4961939;28;20632;-94
2021/03/27 01:27:19;;;;;;;165.40;64.70;;;4.30;99.90;;;;;;4977238;28;20174;-95
2021/03/27 01:30:03;;;;;;;171.73;64.37;;;2.30;99.90;;;;;;4978612;28;20250;-92
2021/03/27 01:32:38;;;;;;;168.23;61.60;;;2.20;99.90;;;;;;4977757;28;20186;-92
2021/03/27 01:35:26;;;;;;;164.37;61.47;;;2.20;99.90;;;;;;4977694;28;20174;-93
2021/03/27 01:38:01;;;;;;;169.57;64.53;;;2.20;99.90;;;;;;4977663;28;20198;-94
2021/03/27 01:40:33;;;;;;;172.37;66.93;;;2.10;99.90;;;;;;4977857;28;20174;-94
2021/03/27 01:43:20;;;;;;;163.70;64.43;;;2.20;99.90;;;;;;4976910;28;20186;-94
2021/03/27 01:46:01;;;;;;;167.83;63.67;;;2.10;99.90;;;;;;4979353;28;20221;-93
2021/03/27 01:48:53;;;;;;;161.93;62.63;;;2.10;99.90;;;;;;4996824;28;20186;-94
2021/03/27 01:51:45;;;;;;;181.73;67.67;;;2.10;99.90;;;;;;4996874;28;20217;-93
2021/03/27 01:54:16;;;;;;;168.87;68.93;;;2.10;99.90;;;;;;4996716;28;20561;-93
2021/03/27 01:57:01;;;;;;;167.63;68.17;;;3.20;99.90;;;;;;4997093;28;20649;-93
2021/03/27 01:59:31;;;;;;;180.80;68.63;;;2.10;99.90;;;;;;4996668;28;20178;-94
2021/03/27 02:02:23;;;;;;;159.43;64.77;;;3.00;99.90;;;;;;4997206;28;20182;-94
2021/03/27 02:05:07;;;;;;;186.23;70.97;;;2.10;99.90;;;;;;4995814;28;20174;-93
2021/03/27 02:07:49;;;;;;;173.47;64.67;;;2.10;99.90;;;;;;4995867;28;20181;-92
2021/03/27 02:10:26;;;;;;;155.97;61.63;;;2.20;99.90;;;;;;4997166;28;20162;-93
2021/03/27 02:13:01;;;;;;;160.70;60.60;;;2.10;99.90;;;;;;4995750;28;20204;-93
2021/03/27 02:15:40;;;;;;;167.30;62.43;;;2.10;99.90;;;;;;4995766;28;20239;-93
2021/03/27 02:18:26;;;;;;;167.73;61.67;;;2.20;99.90;;;;;;4995490;28;20186;-94
2021/03/27 02:21:08;;;;;;;269.23;89.33;;;2.20;99.90;;;;;;4995301;28;20193;-92
2021/03/27 02:23:59;;;;;;;154.33;58.87;;;2.30;99.90;;;;;;4996388;28;20196;-92
2021/03/27 02:26:39;;;;;;;160.27;60.80;;;2.30;99.90;;;;;;4995378;28;20190;-95
2021/03/27 02:29:27;;;;;;;159.50;60.90;;;2.80;99.90;;;;;;4995823;28;20185;-95
2021/03/27 02:32:15;;;;;;;194.70;69.07;;;2.40;99.90;;;;;;4995703;28;20214;-94
2021/03/27 02:34:46;;;;;;;170.97;61.73;;;3.10;99.90;;;;;;4996589;28;20185;-94
2021/03/27 02:37:14;;;;;;;172.13;64.50;;;2.30;99.90;;;;;;4995790;28;20269;-94
2021/03/27 02:39:55;;;;;;;206.17;71.33;;;2.40;99.90;;;;;;4995493;28;20189;-94
2021/03/27 02:42:24;;;;;;;209.93;73.23;;;2.40;99.90;;;;;;4995722;28;20195;-94
2021/03/27 02:45:01;;;;;;;231.40;80.77;;;4.30;99.90;;;;;;4996343;28;20190;-94
2021/03/27 02:48:01;;;;;;;236.87;87.37;;;2.50;99.90;;;;;;4995320;28;20594;-94
2021/03/27 02:51:04;;;;;;;183.10;71.20;;;2.40;99.90;;;;;;4996481;28;20237;-94
2021/03/27 02:53:50;;;;;;;166.87;61.23;;;2.40;99.90;;;;;;4996481;28;20742;-94
2021/03/27 02:56:21;;;;;;;155.17;61.60;;;2.40;99.90;;;;;;4996677;28;20181;-93
2021/03/27 02:59:12;;;;;;;151.77;60.27;;;2.20;99.90;;;;;;4995803;28;20220;-92
2021/03/27 03:01:55;;;;;;;156.33;59.70;;;3.80;99.90;;;;;;4996415;28;20170;-94
2021/03/27 03:04:58;;;;;;;161.63;61.03;;;2.50;99.90;;;;;;4995206;28;20646;-95
2021/03/27 03:07:42;;;;;;;149.07;59.67;;;2.30;99.90;;;;;;4994835;28;20185;-94
2021/03/27 03:10:25;;;;;;;150.83;58.43;;;2.30;99.90;;;;;;4994577;28;20623;-93
2021/03/27 03:13:04;;;;;;;146.63;56.60;;;2.30;99.90;;;;;;4994811;28;20212;-92
2021/03/27 03:15:44;;;;;;;139.87;55.00;;;1.20;99.90;;;;;;4994448;28;20185;-92
2021/03/27 03:18:51;;;;;;;125.90;52.37;;;2.40;99.90;;;;;;4993735;28;20184;-92
2021/03/27 03:21:41;;;;;;;121.80;51.50;;;2.50;99.90;;;;;;4961380;28;20204;-91
2021/03/27 03:24:15;;;;;;;128.57;51.93;;;2.50;99.90;;;;;;4993712;28;20209;-93
2021/03/27 03:27:22;;;;;;;124.07;50.73;;;2.50;99.90;;;;;;4995274;28;20166;-93
2021/03/27 03:30:05;;;;;;;112.53;48.03;;;2.50;99.90;;;;;;4994085;28;20216;-91
2021/03/27 03:32:40;;;;;;;126.37;48.93;;;2.60;99.90;;;;;;4993393;28;20205;-91
2021/03/27 03:35:31;;;;;;;126.13;50.20;;;2.60;99.90;;;;;;4993835;28;20207;-93
2021/03/27 03:38:12;;;;;;;117.40;48.50;;;2.60;99.90;;;;;;4995152;28;20174;-93
2021/03/27 03:40:59;;;;;;;115.67;49.67;;;3.20;99.90;;;;;;4995310;28;20172;-90
2021/03/27 03:43:43;;;;;;;125.57;49.70;;;2.60;99.90;;;;;;4993473;28;20180;-91
2021/03/27 03:46:42;;;;;;;116.83;49.93;;;2.70;99.90;;;;;;4993539;28;20233;-91
2021/03/27 03:49:29;;;;;;;209.27;72.00;;;2.70;99.90;;;;;;4994266;28;20178;-93
2021/03/27 03:52:03;;;;;;;172.70;67.73;;;2.60;99.90;;;;;;4995455;28;20199;-92
2021/03/27 03:54:52;;;;;;;174.67;71.77;;;2.60;99.90;;;;;;4994009;28;20190;-93
2021/03/27 03:57:29;;;;;;;169.20;67.37;;;2.60;99.90;;;;;;4993304;28;20193;-93
2021/03/27 04:00:10;;;;;;;154.57;60.70;;;2.60;99.90;;;;;;4993762;28;20190;-92
2021/03/27 04:03:08;;;;;;;143.60;61.00;;;2.60;99.90;;;;;;4993708;28;20615;-93
2021/03/27 04:05:42;;;;;;;142.83;57.70;;;2.60;99.90;;;;;;4994622;28;20179;-94
2021/03/27 04:08:22;;;;;;;145.50;62.50;;;2.70;99.90;;;;;;4995265;28;20279;-94
2021/03/27 04:11:05;;;;;;;146.80;60.60;;;2.70;99.90;;;;;;4995469;28;20182;-95
2021/03/27 04:13:49;;;;;;;134.30;56.80;;;3.10;99.90;;;;;;4995410;28;20214;-94
2021/03/27 04:16:20;;;;;;;133.07;54.73;;;1.70;99.90;;;;;;4995100;28;20212;-90
2021/03/27 04:18:56;;;;;;;129.43;52.63;;;4.20;99.90;;;;;;4994878;28;20170;-93
2021/03/27 04:21:38;;;;;;;120.10;50.07;;;2.80;99.90;;;;;;4994764;28;20166;-93
2021/03/27 04:24:29;;;;;;;118.73;49.07;;;2.70;99.90;;;;;;4994370;28;20244;-93
2021/03/27 04:27:31;;;;;;;119.43;49.70;;;2.70;99.90;;;;;;4993568;28;20184;-93
2021/03/27 04:30:28;;;;;;;118.40;51.37;;;2.80;99.90;;;;;;4934477;29;20183;-92
2021/03/27 04:33:09;;;;;;;108.23;48.13;;;2.70;99.90;;;;;;4994603;28;20202;-93
2021/03/27 04:35:50;;;;;;;127.30;53.70;;;2.70;99.90;;;;;;4993548;28;20186;-94
2021/03/27 04:38:28;;;;;;;129.33;50.27;;;3.40;99.90;;;;;;4993126;28;20177;-94
2021/03/27 04:41:08;;;;;;;122.40;53.07;;;2.80;99.90;;;;;;4993405;28;20585;-93
2021/03/27 04:44:01;;;;;;;129.00;52.47;;;2.70;99.90;;;;;;4992714;28;20188;-93
2021/03/27 04:46:44;;;;;;;113.37;48.33;;;2.70;99.90;;;;;;4997995;28;20369;-93
2021/03/27 04:49:24;;;;;;;124.73;50.70;;;2.70;99.90;;;;;;4996913;28;20177;-92
2021/03/27 04:52:00;;;;;;;132.57;53.70;;;2.70;99.90;;;;;;4997426;28;20202;-93
2021/03/27 04:54:57;;;;;;;123.47;49.80;;;3.10;99.90;;;;;;4998555;28;20265;-94
2021/03/27 04:57:31;;;;;;;128.20;52.23;;;2.70;99.90;;;;;;4969721;28;20189;-93
2021/03/27 05:00:08;;;;;;;139.60;53.50;;;2.70;99.90;;;;;;4998337;28;20737;-94
2021/03/27 05:02:34;;;;;;;142.40;54.93;;;2.80;99.90;;;;;;4997565;28;20268;-94
2021/03/27 05:05:13;;;;;;;133.40;54.87;;;2.80;99.90;;;;;;4998408;28;20613;-94
2021/03/27 05:08:01;;;;;;;122.23;53.00;;;2.80;99.90;;;;;;4997757;28;20177;-94
2021/03/27 05:10:35;;;;;;;126.57;52.57;;;2.90;99.90;;;;;;4997179;28;20179;-94
2021/03/27 05:13:19;;;;;;;127.77;50.33;;;2.90;99.90;;;;;;4997484;28;20206;-94
2021/03/27 05:15:50;;;;;;;124.17;51.20;;;2.90;99.90;;;;;;4997342;28;20183;-93
2021/03/27 05:18:54;;;;;;;121.10;50.80;;;3.00;99.90;;;;;;4996837;28;20178;-94
2021/03/27 05:21:38;;;;;;;125.57;47.57;;;1.00;99.90;;;;;;4996668;28;20185;-93
2021/03/27 05:24:31;;;;;;;124.23;52.47;;;3.20;99.90;;;;;;4996560;28;20209;-94
2021/03/27 05:26:59;;;;;;;122.27;51.07;;;3.30;99.90;;;;;;4997555;28;20538;-93
2021/03/27 05:29:54;;;;;;;139.17;55.70;;;3.40;99.90;;;;;;4996778;28;20185;-94
2021/03/27 05:32:45;;;;;;;132.87;54.37;;;3.50;99.90;;;;;;4996155;28;20304;-93
2021/03/27 05:35:42;;;;;;;127.63;55.63;;;3.60;99.90;;;;;;4997077;28;20178;-93
2021/03/27 05:38:24;;;;;;;125.70;53.00;;;3.80;99.90;;;;;;5012136;28;20174;-95
2021/03/27 05:41:02;;;;;;;120.27;50.27;;;4.00;99.90;;;;;;5015255;28;20207;-94
2021/03/27 05:44:13;;;;;;;119.03;50.17;;;4.10;99.90;;;;;;5011876;28;20199;-94
2021/03/27 05:47:13;;;;;;;120.30;48.30;;;4.40;99.90;;;;;;5020422;28;20220;-94
2021/03/27 05:50:12;;;;;;;112.73;46.43;;;4.50;99.90;;;;;;5020853;28;20185;-90
2021/03/27 05:53:16;;;;;;;106.40;47.67;;;4.80;99.90;;;;;;5021152;28;20205;-93
2021/03/27 05:56:19;;;;;;;112.40;46.17;;;5.00;99.90;;;;;;5028811;28;20204;-94
2021/03/27 05:59:06;;;;;;;115.87;49.87;;;5.20;99.90;;;;;;5017871;28;20191;-94
2021/03/27 06:01:50;;;;;;;111.33;50.23;;;5.40;99.90;;;;;;5051970;28;20168;-94
2021/03/27 06:04:24;;;;;;;117.20;48.67;;;5.50;99.90;;;;;;5037725;28;20165;-96
2021/03/27 06:07:05;;;;;;;105.67;46.60;;;5.70;99.90;;;;;;5035700;28;20292;-91
2021/03/27 06:09:33;;;;;;;106.73;46.43;;;5.70;99.90;;;;;;5007341;28;20283;-91
2021/03/27 06:12:44;;;;;;;114.70;49.97;;;5.80;99.90;;;;;;5002709;28;20216;-95
2021/03/27 06:15:36;;;;;;;99.47;44.37;;;5.90;99.90;;;;;;4985026;28;20280;-90
2021/03/27 06:18:43;;;;;;;112.43;44.83;;;6.00;99.90;;;;;;5017482;28;20189;-92
2021/03/27 06:21:11;;;;;;;115.97;48.07;;;5.20;99.90;;;;;;4939977;29;20209;-93
2021/03/27 06:24:07;;;;;;;95.90;42.63;;;6.10;99.90;;;;;;5000922;28;20558;-93
2021/03/27 06:26:58;;;;;;;99.83;45.40;;;6.10;99.90;;;;;;5003301;28;20190;-94
2021/03/27 06:29:29;;;;;;;103.07;42.93;;;6.20;99.90;;;;;;5013560;28;20182;-94
2021/03/27 06:32:29;;;;;;;108.60;45.37;;;6.20;99.90;;;;;;5001055;28;20236;-92
2021/03/27 06:35:40;;;;;;;95.97;42.17;;;6.30;99.90;;;;;;5005937;28;20185;-93
2021/03/27 06:38:25;;;;;;;109.53;45.70;;;6.50;99.90;;;;;;5009314;28;20584;-92
2021/03/27 06:41:28;;;;;;;120.33;48.03;;;6.60;99.90;;;;;;5013559;28;20562;-92
2021/03/27 06:44:18;;;;;;;121.27;48.93;;;6.70;99.90;;;;;;5014198;28;20177;-96
2021/03/27 06:47:13;;;;;;;102.17;44.00;;;6.90;99.90;;;;;;5015812;28;20244;-93
2021/03/27 06:50:12;;;;;;;97.93;43.40;;;7.00;99.90;;;;;;5018790;28;20196;-93
2021/03/27 06:53:02;;;;;;;94.93;41.77;;;7.30;99.90;;;;;;4996525;28;20808;-94
2021/03/27 06:55:31;;;;;;;117.47;51.33;;;7.10;99.90;;;;;;5014837;28;20199;-92
2021/03/27 06:58:12;;;;;;;121.40;49.87;;;7.20;99.90;;;;;;5015607;28;20237;-87
2021/03/27 07:00:53;;;;;;;118.53;44.80;;;7.40;99.90;;;;;;5012054;28;20281;-94
2021/03/27 07:03:27;;;;;;;102.50;44.00;;;7.40;99.90;;;;;;5015322;28;20666;-94
2021/03/27 07:06:01;;;;;;;100.97;46.03;;;7.50;99.90;;;;;;5018942;28;20658;-93
2021/03/27 07:08:48;;;;;;;103.00;45.63;;;7.70;99.90;;;;;;5007162;28;20189;-93
2021/03/27 07:11:53;;;;;;;98.30;44.80;;;7.80;99.90;;;;;;5005588;28;20180;-93
2021/03/27 07:14:48;;;;;;;91.50;43.33;;;8.40;99.90;;;;;;5010740;28;20200;-93
2021/03/27 07:17:46;;;;;;;98.80;45.07;;;8.00;99.90;;;;;;5009277;28;20280;-93
2021/03/27 07:20:30;;;;;;;93.70;41.43;;;8.10;99.90;;;;;;4993534;28;20225;-93
2021/03/27 07:23:05;;;;;;;81.53;39.40;;;8.30;99.90;;;;;;5011546;28;20184;-94
2021/03/27 07:25:56;;;;;;;81.97;39.67;;;8.40;99.90;;;;;;5014264;28;20180;-92
2021/03/27 07:29:00;;;;;;;83.27;39.23;;;8.40;99.90;;;;;;5012781;28;20189;-93
2021/03/27 07:31:40;;;;;;;85.53;39.50;;;8.60;99.90;;;;;;4969845;28;20189;-96
2021/03/27 07:34:17;;;;;;;87.70;39.13;;;8.70;99.90;;;;;;5013408;28;20211;-96
2021/03/27 07:36:48;;;;;;;89.70;40.30;;;8.70;99.90;;;;;;5011218;28;20199;-96
2021/03/27 07:39:35;;;;;;;86.47;39.80;;;8.80;99.90;;;;;;5014903;28;20181;-93
2021/03/27 07:42:04;;;;;;;88.93;40.60;;;8.90;99.90;;;;;;5011680;28;20625;-94
2021/03/27 07:44:40;;;;;;;84.67;39.93;;;7.60;99.90;;;;;;5026322;28;20193;-94
2021/03/27 07:47:19;;;;;;;87.47;39.93;;;9.00;99.90;;;;;;5009816;28;20247;-94
2021/03/27 07:50:14;;;;;;;84.40;40.53;;;9.00;99.90;;;;;;5013263;28;20197;-94
2021/03/27 07:53:09;;;;;;;81.87;38.40;;;9.10;99.90;;;;;;5011320;28;20201;-94
2021/03/27 07:55:58;;;;;;;81.93;38.70;;;9.20;99.90;;;;;;4996637;28;20193;-93
2021/03/27 07:58:47;;;;;;;86.13;39.57;;;9.30;99.90;;;;;;5009614;28;20260;-95
2021/03/27 08:01:57;;;;;;;80.63;37.77;;;9.00;99.90;;;;;;4974502;28;20193;-95
2021/03/27 08:05:00;;;;;;;79.83;37.33;;;9.40;99.90;;;;;;4986513;28;20646;-94
2021/03/27 08:07:52;;;;;;;78.73;36.40;;;9.60;99.90;;;;;;5003829;28;20185;-94
2021/03/27 08:11:00;;;;;;;75.00;36.93;;;9.70;99.90;;;;;;5022889;28;20212;-96
2021/03/27 08:13:41;;;;;;;88.47;40.53;;;9.80;99.90;;;;;;5009708;28;20204;-95
2021/03/27 08:16:32;;;;;;;79.20;40.20;;;10.00;99.90;;;;;;5012882;28;20192;-94
2021/03/27 08:19:21;;;;;;;87.60;40.40;;;10.00;99.90;;;;;;4996952;28;20193;-95
2021/03/27 08:22:03;;;;;;;79.17;37.10;;;8.70;99.90;;;;;;5016595;28;20204;-93
2021/03/27 08:24:42;;;;;;;78.07;35.90;;;10.40;99.90;;;;;;5013850;28;20192;-94
2021/03/27 08:27:16;;;;;;;85.57;38.90;;;10.40;99.90;;;;;;5013113;28;20174;-96
2021/03/27 08:29:45;;;;;;;75.87;34.47;;;10.80;99.90;;;;;;5023128;28;20184;-93
2021/03/27 08:32:55;;;;;;;78.30;35.90;;;10.80;99.90;;;;;;5009754;28;20287;-92
2021/03/27 08:35:54;;;;;;;73.00;35.30;;;11.00;99.90;;;;;;5012420;28;20268;-93
2021/03/27 08:38:34;;;;;;;75.97;33.53;;;11.20;99.60;;;;;;5012555;28;20204;-92
2021/03/27 08:41:22;;;;;;;66.77;33.33;;;11.10;98.10;;;;;;5013432;28;20173;-90
2021/03/27 08:44:18;;;;;;;66.07;33.80;;;11.30;98.60;;;;;;5006726;28;20645;-94
2021/03/27 08:46:50;;;;;;;68.83;33.63;;;11.40;97.10;;;;;;5012770;28;20228;-91
2021/03/27 08:49:30;;;;;;;68.63;33.83;;;11.30;98.00;;;;;;5010800;28;20272;-90
2021/03/27 08:52:24;;;;;;;66.70;32.67;;;11.40;96.70;;;;;;5012086;28;20209;-89
2021/03/27 08:55:23;;;;;;;65.93;31.83;;;11.50;95.30;;;;;;5011823;28;20550;-91
2021/03/27 08:58:18;;;;;;;58.80;32.03;;;11.60;95.60;;;;;;5006497;28;20236;-93
2021/03/27 09:01:08;;;;;;;61.20;31.20;;;11.60;95.00;;;;;;5010458;28;20188;-92
2021/03/27 09:04:01;;;;;;;59.77;30.40;;;11.70;93.20;;;;;;5011826;28;20189;-91
2021/03/27 09:06:33;;;;;;;68.27;31.90;;;11.80;94.90;;;;;;5010962;28;20189;-90
2021/03/27 09:09:38;;;;;;;65.27;31.03;;;11.80;92.70;;;;;;5011639;28;20732;-90
2021/03/27 09:12:19;;;;;;;60.87;31.67;;;11.90;91.90;;;;;;4996006;28;20287;-90
2021/03/27 09:15:07;;;;;;;68.33;32.53;;;11.00;91.50;;;;;;5011105;28;20190;-90
2021/03/27 09:17:45;;;;;;;69.50;32.53;;;12.10;92.00;;;;;;5008783;28;20240;-90
2021/03/27 09:20:21;;;;;;;65.20;32.67;;;12.20;91.20;;;;;;5010808;28;20185;-90
2021/03/27 09:23:20;;;;;;;64.40;31.70;;;12.30;91.20;;;;;;5012121;28;20187;-88
2021/03/27 09:26:14;;;;;;;64.93;32.47;;;12.50;91.50;;;;;;5010411;28;20189;-90
2021/03/27 09:29:01;;;;;;;63.25;32.17;;;12.70;91.30;;;;;;5010543;28;20192;-91
2021/03/27 09:31:58;;;;;;;70.80;32.22;;;12.80;91.20;;;;;;5012423;28;20181;-89
2021/03/27 09:34:54;;;;;;;60.78;31.60;;;13.00;90.20;;;;;;5015102;28;20189;-89
2021/03/27 09:37:44;;;;;;;65.78;32.17;;;13.00;89.20;;;;;;5016047;28;20957;-90
2021/03/27 09:40:16;;;;;;;65.47;32.90;;;13.10;88.50;;;;;;5016259;28;20181;-89
2021/03/27 09:42:53;;;;;;;64.65;30.25;;;13.10;90.30;;;;;;5016523;28;20181;-89
2021/03/27 09:45:51;;;;;;;59.80;29.85;;;13.10;89.80;;;;;;5015023;28;20188;-90
2021/03/27 09:48:28;;;;;;;63.45;31.38;;;13.20;90.20;;;;;;4991941;28;20255;-90
2021/03/27 09:51:20;;;;;;;62.95;31.50;;;13.40;87.50;;;;;;5001221;28;20266;-90
2021/03/27 09:54:19;;;;;;;67.82;31.38;;;13.50;87.60;;;;;;5014245;28;20287;-89
2021/03/27 09:57:27;;;;;;;61.42;30.48;;;13.70;85.30;;;;;;5015715;28;20185;-90
2021/03/27 10:00:13;;;;;;;62.55;31.63;;;13.80;85.50;;;;;;4936284;29;20195;-90
2021/03/27 10:02:51;;;;;;;69.28;33.50;;;13.90;85.70;;;;;;5016227;28;20204;-90
2021/03/27 10:05:35;;;;;;;61.20;31.98;;;14.10;85.60;;;;;;5016929;28;20639;-90
2021/03/27 10:08:04;;;;;;;68.18;32.20;;;14.30;84.60;;;;;;5011593;28;20203;-88
2021/03/27 10:11:05;;;;;;;58.83;29.95;;;14.50;82.20;;;;;;5015712;28;20268;-91
2021/03/27 10:14:11;;;;;;;57.15;29.90;;;14.50;78.90;;;;;;5013573;28;20239;-94
2021/03/27 10:17:04;;;;;;;58.50;29.92;;;14.60;77.10;;;;;;5012265;28;20208;-93
2021/03/27 10:19:49;;;;;;;57.10;28.65;;;14.70;75.90;;;;;;5013381;28;20197;-94
2021/03/27 10:22:41;;;;;;;55.08;29.58;;;14.70;75.80;;;;;;5002596;28;20189;-93
2021/03/27 10:25:29;;;;;;;57.85;28.45;;;14.80;74.60;;;;;;5015142;28;20173;-90
2021/03/27 10:28:19;;;;;;;51.78;29.13;;;14.90;74.70;;;;;;5016211;28;20215;-94
2021/03/27 10:30:48;;;;;;;50.38;26.77;;;15.10;73.40;;;;;;5009290;28;20189;-93
2021/03/27 10:33:21;;;;;;;50.95;27.33;;;15.20;73.90;;;;;;5014519;28;20232;-95
2021/03/27 10:35:47;;;;;;;54.10;29.15;;;15.30;71.10;;;;;;5016256;28;20244;-90
2021/03/27 10:38:30;;;;;;;48.08;28.35;;;15.40;74.20;;;;;;5002699;28;20185;-92
2021/03/27 10:41:41;;;;;;;53.80;27.80;;;15.60;71.90;;;;;;5009451;28;20199;-96
2021/03/27 10:44:06;;;;;;;52.92;25.80;;;15.60;70.40;;;;;;4929278;29;20184;-95
2021/03/27 10:46:38;;;;;;;50.65;28.30;;;15.70;70.40;;;;;;4930712;29;20247;-93
2021/03/27 10:49:10;;;;;;;52.70;27.45;;;15.70;70.80;;;;;;4980440;28;20201;-94
2021/03/27 10:52:06;;;;;;;49.42;26.30;;;15.90;71.80;;;;;;5013419;28;20276;-93
2021/03/27 10:54:35;;;;;;;45.30;23.55;;;16.10;69.90;;;;;;5013988;28;20219;-89
2021/03/27 10:57:26;;;;;;;49.97;25.10;;;16.20;68.10;;;;;;5014077;28;20226;-91
2021/03/27 11:00:32;;;;;;;50.08;25.90;;;16.40;67.40;;;;;;5012058;28;20181;-92
2021/03/27 11:03:35;;;;;;;51.00;26.67;;;16.50;67.20;;;;;;5010778;28;20224;-94
2021/03/27 11:06:16;;;;;;;44.72;22.67;;;16.60;67.00;;;;;;5008485;28;20177;-92
2021/03/27 11:09:19;;;;;;;49.53;24.92;;;16.80;66.20;;;;;;5013586;28;20185;-91
2021/03/27 11:12:24;;;;;;;45.90;24.08;;;16.90;64.30;;;;;;5013137;28;20219;-89
2021/03/27 11:15:02;;;;;;;48.78;24.08;;;17.10;72.80;;;;;;5011701;28;20185;-96
2021/03/27 11:17:46;;;;;;;48.67;21.13;;;17.20;69.10;;;;;;5005448;28;20680;-92
2021/03/27 11:20:27;;;;;;;43.70;23.38;;;17.30;68.00;;;;;;5013108;28;20189;-93
2021/03/27 11:23:15;;;;;;;45.55;24.67;;;17.40;71.10;;;;;;5038304;28;20283;-92
2021/03/27 11:26:14;;;;;;;47.83;23.38;;;17.50;70.20;;;;;;5031981;28;20196;-93
2021/03/27 11:28:52;;;;;;;45.45;23.63;;;17.60;62.70;;;;;;5033200;28;20189;-94
2021/03/27 11:31:49;;;;;;;49.80;25.40;;;17.60;61.70;;;;;;5038140;28;20189;-91
2021/03/27 11:34:36;;;;;;;43.45;23.50;;;17.50;61.90;;;;;;5034937;28;20188;-94
2021/03/27 11:37:23;;;;;;;52.55;26.63;;;17.40;63.10;;;;;;5039154;28;20177;-92
2021/03/27 11:40:08;;;;;;;51.20;24.55;;;17.40;62.00;;;;;;5030421;28;20197;-94
2021/03/27 11:42:49;;;;;;;48.80;25.48;;;17.40;61.80;;;;;;5028324;28;20185;-93
2021/03/27 11:45:39;;;;;;;47.53;24.13;;;17.50;61.90;;;;;;5025889;28;20188;-95
2021/03/27 11:48:16;;;;;;;54.42;25.55;;;17.50;60.60;;;;;;5033739;28;20225;-94
2021/03/27 11:51:04;;;;;;;50.42;24.88;;;17.60;61.40;;;;;;5033925;28;20205;-94
2021/03/27 11:53:39;;;;;;;43.70;22.88;;;17.60;59.90;;;;;;5003471;28;20221;-93
2021/03/27 11:56:29;;;;;;;45.20;24.30;;;17.40;62.20;;;;;;5024410;28;20661;-86
2021/03/27 12:02:33;;;;;;;44.05;23.67;;;17.60;60.10;;;;;;5016884;28;20239;-95
2021/03/27 12:05:23;;;;;;;47.20;22.55;;;17.60;61.30;;;;;;5025953;28;20209;-94
2021/03/27 12:07:56;;;;;;;40.78;19.95;;;17.80;60.30;;;;;;5003884;28;20213;-94
2021/03/27 12:13:49;;;;;;;40.28;19.80;;;18.00;57.80;;;;;;4976914;28;20644;-92
2021/03/27 12:16:35;;;;;;;37.63;20.77;;;18.10;58.60;;;;;;5009783;28;20209;-95
2021/03/27 12:19:25;;;;;;;41.65;20.33;;;20.20;60.00;;;;;;5025480;28;20191;-94
2021/03/27 12:22:17;;;;;;;39.20;21.10;;;18.30;57.90;;;;;;5024996;28;20193;-94
2021/03/27 12:24:57;;;;;;;36.50;20.60;;;18.50;57.10;;;;;;4997921;28;20724;-94
2021/03/27 12:27:47;;;;;;;39.67;21.70;;;18.50;56.40;;;;;;5000579;28;20196;-90
2021/03/27 12:30:20;;;;;;;37.00;19.65;;;18.60;56.40;;;;;;5008902;28;20268;-88
2021/03/27 12:33:31;;;;;;;38.38;20.10;;;18.60;55.40;;;;;;5010253;28;20204;-89
2021/03/27 12:36:18;;;;;;;40.38;21.08;;;18.60;55.90;;;;;;4985677;28;20191;-91
2021/03/27 12:39:07;;;;;;;39.85;21.60;;;18.70;56.50;;;;;;5005682;28;20185;-88
2021/03/27 12:41:48;;;;;;;40.00;21.38;;;18.80;55.40;;;;;;5008120;28;20713;-90
2021/03/27 12:44:37;;;;;;;36.42;19.05;;;18.90;54.90;;;;;;5002482;28;20193;-90
2021/03/27 12:47:21;;;;;;;43.05;21.58;;;18.80;54.50;;;;;;5007318;28;20252;-89
2021/03/27 12:50:03;;;;;;;39.70;20.10;;;19.00;56.10;;;;;;5011094;28;20188;-88
2021/03/27 12:52:41;;;;;;;39.33;21.33;;;19.10;54.70;;;;;;5006079;28;20340;-89
2021/03/27 12:55:22;;;;;;;40.55;21.42;;;19.00;55.20;;;;;;5009822;28;20250;-88
2021/03/27 12:58:00;;;;;;;35.08;20.45;;;19.20;55.20;;;;;;5010386;28;20660;-88
2021/03/27 13:00:48;;;;;;;46.20;24.38;;;19.50;54.10;;;;;;5009901;28;20260;-88
2021/03/27 13:03:39;;;;;;;38.45;20.88;;;19.70;53.40;;;;;;5009043;28;20189;-87
2021/03/27 13:06:10;;;;;;;33.10;19.83;;;19.90;53.40;;;;;;5013074;28;20571;-89
2021/03/27 13:08:38;;;;;;;35.45;18.85;;;19.80;53.50;;;;;;5011418;28;20189;-89
2021/03/27 13:11:07;;;;;;;33.58;20.35;;;19.70;53.70;;;;;;5013331;28;20679;-90
2021/03/27 13:13:54;;;;;;;34.88;20.77;;;19.70;53.40;;;;;;5002342;28;20205;-88
2021/03/27 13:16:38;;;;;;;41.17;20.92;;;19.60;52.30;;;;;;5014390;28;20221;-89
2021/03/27 13:19:16;;;;;;;36.92;19.55;;;19.60;53.70;;;;;;5006183;28;20181;-88
2021/03/27 13:21:56;;;;;;;34.42;19.27;;;19.20;52.80;;;;;;5013400;28;20173;-89
2021/03/27 13:24:34;;;;;;;37.30;19.70;;;18.80;53.60;;;;;;5009160;28;20212;-91
2021/03/27 13:27:12;;;;;;;35.47;19.27;;;18.60;54.30;;;;;;5013346;28;20187;-93
2021/03/27 13:29:41;;;;;;;40.20;18.60;;;18.40;54.20;;;;;;5014399;28;20263;-89
2021/03/27 13:32:29;;;;;;;34.63;19.20;;;18.20;53.90;;;;;;5014814;28;20235;-87
2021/03/27 13:35:21;;;;;;;37.83;20.45;;;18.10;54.60;;;;;;5013887;28;20598;-90
2021/03/27 13:37:52;;;;;;;38.22;20.05;;;18.10;54.80;;;;;;5010099;28;20665;-89
2021/03/27 13:40:24;;;;;;;36.38;18.80;;;18.10;54.60;;;;;;5008364;28;20227;-91
2021/03/27 13:43:04;;;;;;;42.40;21.60;;;18.30;55.00;;;;;;5015142;28;20181;-89
2021/03/27 13:45:56;;;;;;;36.65;19.92;;;18.80;54.20;;;;;;5012968;28;20598;-90
2021/03/27 13:48:28;;;;;;;46.90;20.00;;;19.40;53.30;;;;;;5009006;28;20216;-90
2021/03/27 13:51:11;;;;;;;34.92;19.30;;;19.60;51.40;;;;;;5014541;28;20196;-91
2021/03/27 13:53:50;;;;;;;38.72;20.10;;;19.70;51.60;;;;;;5010084;28;20222;-90
2021/03/27 13:56:50;;;;;;;39.13;20.40;;;19.90;50.40;;;;;;5015042;28;20637;-92
2021/03/27 13:59:18;;;;;;;46.97;21.35;;;20.10;49.60;;;;;;5014978;28;20193;-91
2021/03/27 14:02:06;;;;;;;37.70;20.92;;;20.30;49.60;;;;;;5016437;28;20183;-90